< < Back
Terminal Aerodrome Forecast


Current Version              Previous Versions:   1  2  3  4  5  6  7  8  9  

Terminal Aerodrome Forecast

027
FTAK31 PAJN 132330
TAFAHN
TAF
PAHN 132330Z 1400/1424 07010KT P6SM BKN015 OVC025
     FM140200 09008KT P6SM SCT025 BKN040 OVC060
     FM140600 10007KT P6SM VCSH SCT020 BKN030 OVC050
     FM140900 12007KT 3SM -SN BR BKN010 OVC020
     FM141700 15007KT 4SM -RA BR OVC025
     FM142200 35008KT P6SM -RA SCT025 OVC040
      AMD LTD TO CLD VIS AND WIND=



Latest METAR

217
SAUS70 KWBC 140754
MTRAHN
METAR KAHN 140751Z AUTO 07005KT 10SM CLR M03/M12 A3035 RMK AO2 SLP285
T10281122


USA.gov is the U.S. government's official web portal to all federal, state and local government web resources and services.